Smarr, Georgia
Current Conditions -  °F | °C
As of 12:15 AM on Sunday 26 Oct 2014 (Local Time) from KOPN Reporting Station
Clear Clear  
Wind Chill: 63°   Ceiling: Unl
Heat Index: 63°   Visibility: 10mi
Dew Point: 52°   Wind: 5mph
Humidity: 68%   Direction: 350°N
Pressure: 30.04"   Gusts: NA
Location:  32.99°N, 83.88°W
Report Text: KOPN 260415Z AUTO 35004KT 10SM CLR 17/11 A3004 RMK AO2
Loading
Personal Weather Stations






























Interactive Weather Map
Tropical Storm Tracking
New forecast layout! Learn more

10-Day Weather Forecast

Advertisements
Track Severe Weather on mobile